createdAt,value
2022-11-23T00:00:19.830Z,70.72
2022-11-23T00:03:15.973Z,70.79
2022-11-23T00:05:48.300Z,70.80
2022-11-23T00:08:20.587Z,70.74
2022-11-23T00:10:52.924Z,70.93
2022-11-23T00:13:25.239Z,71.02
2022-11-23T00:15:57.540Z,70.91
2022-11-23T00:18:29.943Z,71.11
2022-11-23T00:21:06.563Z,71.18
2022-11-23T00:23:39.339Z,71.21
2022-11-23T00:26:12.236Z,71.12
2022-11-23T00:28:44.959Z,71.18
2022-11-23T00:31:21.326Z,71.26
2022-11-23T00:33:55.631Z,71.18
2022-11-23T00:36:29.339Z,71.12
2022-11-23T00:39:01.651Z,71.22
2022-11-23T00:41:34.032Z,71.41
2022-11-23T00:44:08.063Z,71.26
2022-11-23T00:46:40.531Z,71.23
2022-11-23T00:49:12.940Z,71.36
2022-11-23T00:51:45.727Z,71.52
2022-11-23T00:54:18.493Z,71.49
2022-11-23T00:56:51.155Z,71.49
2022-11-23T00:59:23.752Z,71.47
2022-11-23T01:01:56.595Z,71.43
2022-11-23T01:04:29.386Z,71.51
2022-11-23T01:07:01.659Z,71.59
2022-11-23T01:09:34.073Z,71.55
2022-11-23T01:12:07.202Z,71.82
2022-11-23T01:14:39.631Z,71.64
2022-11-23T01:17:13.503Z,71.72
2022-11-23T01:19:46.063Z,71.66
2022-11-23T01:22:20.379Z,72.03
2022-11-23T01:24:52.698Z,71.97
2022-11-23T01:27:24.978Z,71.84
2022-11-23T01:29:57.471Z,71.90
2022-11-23T01:32:29.827Z,71.98
2022-11-23T01:35:02.151Z,72.00
2022-11-23T01:37:34.471Z,72.09
2022-11-23T01:40:08.330Z,72.05
2022-11-23T01:42:56.283Z,72.13
2022-11-23T01:45:37.978Z,72.00
2022-11-23T01:48:15.153Z,72.32
2022-11-23T01:50:52.952Z,72.24
2022-11-23T01:53:26.214Z,72.35
2022-11-23T01:56:01.474Z,72.34
2022-11-23T01:58:38.473Z,72.42
2022-11-23T02:01:11.835Z,72.41
2022-11-23T02:03:48.657Z,72.33
2022-11-23T02:06:23.916Z,72.51
2022-11-23T02:08:57.105Z,72.50
2022-11-23T02:11:29.534Z,72.54
2022-11-23T02:14:02.641Z,72.48
2022-11-23T02:16:35.445Z,72.50
2022-11-23T02:19:15.702Z,72.66
2022-11-23T02:21:49.651Z,72.58
2022-11-23T02:24:28.292Z,72.72
2022-11-23T02:27:02.503Z,72.62
2022-11-23T02:29:34.979Z,72.60
2022-11-23T02:32:07.597Z,72.54
2022-11-23T02:34:39.897Z,72.82
2022-11-23T02:37:14.310Z,72.87
2022-11-23T02:39:50.149Z,72.84
2022-11-23T02:42:22.579Z,72.89
2022-11-23T02:45:05.745Z,72.93
2022-11-23T02:47:38.044Z,72.93
2022-11-23T02:50:11.286Z,72.95
2022-11-23T02:52:44.197Z,72.83
2022-11-23T02:55:16.672Z,73.00
2022-11-23T02:57:49.128Z,72.92
2022-11-23T03:00:21.675Z,72.89
2022-11-23T03:02:54.102Z,72.96
2022-11-23T03:05:26.973Z,72.89
2022-11-23T03:07:59.652Z,73.01
2022-11-23T03:10:33.219Z,73.02
2022-11-23T03:13:06.743Z,72.95
2022-11-23T03:15:39.658Z,73.14
2022-11-23T03:18:11.911Z,72.99
2022-11-23T03:20:44.317Z,73.00
2022-11-23T03:23:16.826Z,73.10
2022-11-23T03:25:55.722Z,73.25
2022-11-23T03:28:28.762Z,73.12
2022-11-23T03:31:01.200Z,73.21
2022-11-23T03:33:34.031Z,73.21
2022-11-23T03:36:07.556Z,73.30
2022-11-23T03:38:39.902Z,73.42
2022-11-23T03:41:12.271Z,73.37
2022-11-23T03:43:44.807Z,73.30
2022-11-23T03:46:17.071Z,73.32
2022-11-23T03:48:49.362Z,73.41
2022-11-23T03:51:21.821Z,73.46
2022-11-23T03:53:54.474Z,73.48
2022-11-23T03:56:27.447Z,73.58
2022-11-23T03:59:02.242Z,73.70
2022-11-23T04:01:34.958Z,73.70
2022-11-23T04:04:07.659Z,73.84
2022-11-23T04:06:40.010Z,73.71
2022-11-23T04:09:13.179Z,73.76
2022-11-23T04:11:45.560Z,73.80
2022-11-23T04:14:18.242Z,73.77
2022-11-23T04:16:50.497Z,73.71
2022-11-23T04:19:23.190Z,73.69
2022-11-23T04:21:56.941Z,74.03
2022-11-23T04:24:30.593Z,73.92
2022-11-23T04:27:02.942Z,73.98
2022-11-23T04:29:36.064Z,73.99
2022-11-23T04:32:08.638Z,73.99
2022-11-23T04:34:41.274Z,74.04
2022-11-23T04:37:13.821Z,74.10
2022-11-23T04:39:46.473Z,74.13
2022-11-23T04:42:18.813Z,74.20
2022-11-23T04:44:51.296Z,74.20
2022-11-23T04:47:24.818Z,74.21
2022-11-23T04:49:57.124Z,74.24
2022-11-23T04:52:29.405Z,74.23
2022-11-23T04:55:01.722Z,74.26
2022-11-23T04:57:34.027Z,74.18
2022-11-23T05:00:07.735Z,74.44
2022-11-23T05:02:40.310Z,74.48
2022-11-23T05:05:13.431Z,74.28
2022-11-23T05:07:45.787Z,74.36
2022-11-23T05:10:19.257Z,74.54
2022-11-23T05:12:51.932Z,74.47
2022-11-23T05:15:25.638Z,74.55
2022-11-23T05:18:04.680Z,74.60
2022-11-23T05:20:37.173Z,74.55
2022-11-23T05:23:10.160Z,74.76
2022-11-23T05:25:44.783Z,74.67
2022-11-23T05:31:13.112Z,74.74
2022-11-23T05:33:45.393Z,74.83
2022-11-23T05:36:17.739Z,74.77
2022-11-23T05:38:51.701Z,74.94
2022-11-23T05:41:24.075Z,74.91
2022-11-23T05:43:56.666Z,74.89
2022-11-23T05:46:30.584Z,74.96
2022-11-23T05:49:03.849Z,74.98
2022-11-23T05:51:36.175Z,75.08
2022-11-23T05:54:08.767Z,75.04
2022-11-23T05:56:42.186Z,75.09
2022-11-23T05:59:15.519Z,75.18
2022-11-23T06:01:47.754Z,75.21
2022-11-23T06:04:20.432Z,75.23
2022-11-23T06:06:54.601Z,75.20
2022-11-23T06:09:27.591Z,75.24
2022-11-23T06:11:59.823Z,75.32
2022-11-23T06:14:32.206Z,75.35
2022-11-23T06:17:04.499Z,75.31
2022-11-23T06:19:36.855Z,75.39
2022-11-23T06:22:09.945Z,75.37
2022-11-23T06:24:42.313Z,75.39
2022-11-23T06:27:18.232Z,75.42
2022-11-23T06:29:50.864Z,75.51
2022-11-23T06:32:23.190Z,75.44
2022-11-23T06:35:00.548Z,75.62
2022-11-23T06:37:33.419Z,75.64
2022-11-23T06:40:06.296Z,75.62
2022-11-23T06:42:40.299Z,75.64
2022-11-23T06:45:14.022Z,75.65
2022-11-23T06:47:46.842Z,75.72
2022-11-23T06:50:19.660Z,75.70
2022-11-23T06:52:57.812Z,75.80
2022-11-23T06:55:30.221Z,75.74
2022-11-23T06:58:02.724Z,75.84
2022-11-23T07:00:36.291Z,75.79
2022-11-23T07:03:09.037Z,75.90
2022-11-23T07:05:43.650Z,75.86
2022-11-23T07:08:18.348Z,75.90
2022-11-23T07:10:52.047Z,75.91
2022-11-23T07:13:25.815Z,75.98
2022-11-23T07:15:58.649Z,75.97
2022-11-23T07:18:31.677Z,75.94
2022-11-23T07:21:04.055Z,76.04
2022-11-23T07:23:40.793Z,76.08
2022-11-23T07:26:13.524Z,76.07
2022-11-23T07:28:46.589Z,76.16
2022-11-23T07:31:20.694Z,76.18
2022-11-23T07:33:54.643Z,76.03
2022-11-23T07:36:29.586Z,76.26
2022-11-23T07:39:02.690Z,76.08
2022-11-23T07:41:35.363Z,76.04
2022-11-23T07:44:09.761Z,76.09
2022-11-23T07:46:42.852Z,76.08
2022-11-23T07:49:15.863Z,76.15
2022-11-23T07:51:50.384Z,76.18
2022-11-23T07:54:23.953Z,76.11
2022-11-23T07:56:56.414Z,76.26
2022-11-23T07:59:29.652Z,76.22
2022-11-23T08:02:02.244Z,76.24
2022-11-23T08:04:35.009Z,76.25
2022-11-23T08:07:08.056Z,76.29
2022-11-23T08:09:41.891Z,76.23
2022-11-23T08:12:14.517Z,76.26
2022-11-23T08:14:47.397Z,76.30
2022-11-23T08:17:19.789Z,76.26
2022-11-23T08:19:52.458Z,76.25
2022-11-23T08:22:25.005Z,76.29
2022-11-23T08:24:58.590Z,76.21
2022-11-23T08:27:31.112Z,76.28
2022-11-23T08:30:03.572Z,76.28
2022-11-23T08:32:35.933Z,76.30
2022-11-23T08:35:09.479Z,76.29
2022-11-23T08:37:42.208Z,76.22
2022-11-23T08:40:19.460Z,76.34
2022-11-23T08:42:55.540Z,76.27
2022-11-23T08:45:28.147Z,76.33
2022-11-23T08:48:04.269Z,76.29
2022-11-23T08:50:37.322Z,76.29
2022-11-23T08:53:10.962Z,76.35
2022-11-23T08:55:43.661Z,76.31
2022-11-23T08:58:16.630Z,76.47
2022-11-23T09:00:50.007Z,76.78
2022-11-23T09:03:23.296Z,76.56
2022-11-23T09:06:00.925Z,76.47
2022-11-23T09:08:35.242Z,76.50
2022-11-23T09:11:11.134Z,76.59
2022-11-23T09:13:42.774Z,76.59
2022-11-23T09:16:16.624Z,76.56
2022-11-23T09:18:50.186Z,76.59
2022-11-23T09:21:24.874Z,76.51
2022-11-23T09:23:58.519Z,76.66
2022-11-23T09:26:33.255Z,76.40
2022-11-23T09:29:06.028Z,76.47
2022-11-23T09:31:38.770Z,76.67
2022-11-23T09:34:13.026Z,76.62
2022-11-23T09:36:47.269Z,76.67
2022-11-23T09:39:21.844Z,76.58
2022-11-23T09:42:14.798Z,76.42
2022-11-23T09:45:00.746Z,76.44
2022-11-23T09:48:01.959Z,76.55
2022-11-23T09:50:45.336Z,76.65
2022-11-23T09:53:21.695Z,76.55
2022-11-23T09:55:59.093Z,76.63
2022-11-23T09:58:38.178Z,76.69
2022-11-23T10:01:16.856Z,76.59
2022-11-23T10:03:50.446Z,76.53
2022-11-23T10:06:27.057Z,76.61
2022-11-23T10:09:13.625Z,76.61
2022-11-23T10:12:14.811Z,76.59
2022-11-23T10:15:06.759Z,76.65
2022-11-23T10:17:59.956Z,76.62
2022-11-23T10:20:44.931Z,76.62
2022-11-23T10:23:29.659Z,76.64
2022-11-23T10:26:04.738Z,76.56
2022-11-23T10:28:38.971Z,76.49
2022-11-23T10:31:17.797Z,76.41
2022-11-23T10:34:04.604Z,76.43
2022-11-23T10:36:41.255Z,76.45
2022-11-23T10:39:24.539Z,76.36
2022-11-23T10:42:01.984Z,76.54
2022-11-23T10:44:38.842Z,76.52
2022-11-23T10:47:11.410Z,76.49
2022-11-23T10:49:59.632Z,76.19
2022-11-23T10:52:34.380Z,76.44
2022-11-23T10:55:12.211Z,76.56
2022-11-23T10:57:48.211Z,76.46
2022-11-23T11:00:28.755Z,76.53
2022-11-23T11:03:22.709Z,76.45
2022-11-23T11:06:14.666Z,76.59
2022-11-23T11:08:56.508Z,76.56
2022-11-23T11:11:34.095Z,76.55
2022-11-23T11:14:18.576Z,76.48
2022-11-23T11:16:55.412Z,76.40
2022-11-23T11:19:33.232Z,76.43
2022-11-23T11:22:27.896Z,76.47
2022-11-23T11:25:00.447Z,76.17
2022-11-23T11:27:34.246Z,76.46
2022-11-23T11:30:22.889Z,76.40
2022-11-23T11:33:06.275Z,76.32
2022-11-23T11:35:45.339Z,76.33
2022-11-23T11:38:22.464Z,76.28
2022-11-23T11:40:57.810Z,76.31
2022-11-23T11:43:39.837Z,76.23
2022-11-23T11:46:33.457Z,76.29
2022-11-23T11:49:15.086Z,76.30
2022-11-23T11:51:53.643Z,76.19
2022-11-23T11:54:36.399Z,76.33
2022-11-23T11:57:18.057Z,76.27
2022-11-23T11:59:53.020Z,76.34
2022-11-23T12:02:29.686Z,76.19
2022-11-23T12:05:15.351Z,76.26
2022-11-23T12:07:56.734Z,76.21
2022-11-23T12:10:35.426Z,76.21
2022-11-23T12:13:10.642Z,76.28
2022-11-23T12:15:50.221Z,76.29
2022-11-23T12:18:56.872Z,76.18
2022-11-23T12:21:55.912Z,76.25
2022-11-23T12:24:40.921Z,76.29
2022-11-23T12:27:23.832Z,76.20
2022-11-23T12:30:15.704Z,76.29
2022-11-23T12:33:02.690Z,76.32
2022-11-23T12:35:56.346Z,76.35
2022-11-23T12:38:39.647Z,76.32
2022-11-23T12:41:30.964Z,76.26
2022-11-23T12:44:33.289Z,76.25
2022-11-23T12:47:14.813Z,76.23
2022-11-23T12:49:53.238Z,76.29
2022-11-23T12:52:41.144Z,76.28
2022-11-23T12:55:24.988Z,76.44
2022-11-23T12:58:06.809Z,76.40
2022-11-23T13:00:46.597Z,76.29
2022-11-23T13:03:49.795Z,76.21
2022-11-23T13:10:22.282Z,76.36
2022-11-23T13:13:15.831Z,76.22
2022-11-23T13:16:09.965Z,76.28
2022-11-23T13:19:04.427Z,76.21
2022-11-23T13:21:41.895Z,76.29
2022-11-23T13:24:32.341Z,76.39
2022-11-23T13:27:42.708Z,76.39
2022-11-23T13:33:39.132Z,76.37
2022-11-23T13:37:10.669Z,76.23
2022-11-23T13:40:06.195Z,76.14
2022-11-23T13:42:40.296Z,76.26
2022-11-23T13:45:30.909Z,76.35
2022-11-23T13:48:49.003Z,76.36
2022-11-23T13:51:13.651Z,76.36
2022-11-23T13:53:59.583Z,76.30
2022-11-23T13:56:41.647Z,76.19
2022-11-23T13:59:35.318Z,76.13
2022-11-23T14:02:30.723Z,76.15
2022-11-23T14:05:54.094Z,76.23
2022-11-23T14:08:29.628Z,76.33
2022-11-23T14:11:11.419Z,76.43
2022-11-23T14:13:53.476Z,76.49
2022-11-23T14:16:43.655Z,76.40
2022-11-23T14:19:26.224Z,76.41
2022-11-23T14:22:11.110Z,76.42
2022-11-23T14:25:04.824Z,76.53
2022-11-23T14:27:48.569Z,76.54
2022-11-23T14:30:43.223Z,76.48
2022-11-23T14:33:31.503Z,76.54
2022-11-23T14:36:20.220Z,76.57
2022-11-23T14:39:17.978Z,76.58
2022-11-23T14:41:55.448Z,76.45
2022-11-23T14:44:34.166Z,76.59
2022-11-23T14:47:12.262Z,76.64
2022-11-23T14:49:53.660Z,76.71
2022-11-23T14:52:28.956Z,76.61
2022-11-23T14:55:05.504Z,76.81
2022-11-23T14:57:46.109Z,76.83
2022-11-23T15:00:31.797Z,76.81
2022-11-23T15:03:42.434Z,76.75
2022-11-23T15:06:10.815Z,76.78
2022-11-23T15:08:52.246Z,76.85
2022-11-23T15:11:30.532Z,76.78
2022-11-23T15:14:06.014Z,76.74
2022-11-23T15:16:43.628Z,76.78
2022-11-23T15:19:28.628Z,76.80
2022-11-23T15:22:01.731Z,76.84
2022-11-23T15:24:34.348Z,76.93
2022-11-23T15:27:12.554Z,76.88
2022-11-23T15:29:54.806Z,76.88
2022-11-23T15:32:34.144Z,76.76
2022-11-23T15:35:12.001Z,76.79
2022-11-23T15:37:48.960Z,76.88
2022-11-23T15:40:24.742Z,77.07
2022-11-23T15:42:57.395Z,76.98
2022-11-23T15:46:04.023Z,77.10
2022-11-23T15:48:38.626Z,77.07
2022-11-23T15:51:27.099Z,77.09
2022-11-23T15:54:02.091Z,77.17
2022-11-23T15:56:36.567Z,77.26
2022-11-23T15:59:34.524Z,77.29
2022-11-23T16:02:15.515Z,77.21
2022-11-23T16:04:48.414Z,77.20
2022-11-23T16:07:23.845Z,77.11
2022-11-23T16:10:20.796Z,77.14
2022-11-23T16:12:54.564Z,77.16
2022-11-23T16:15:44.608Z,77.38
2022-11-23T16:18:27.842Z,77.42
2022-11-23T16:21:05.182Z,77.31
2022-11-23T16:23:49.407Z,77.53
2022-11-23T16:26:31.372Z,77.58
2022-11-23T16:29:06.046Z,77.52
2022-11-23T16:31:42.302Z,77.46
2022-11-23T16:34:17.822Z,77.34
2022-11-23T16:36:51.211Z,77.50
2022-11-23T16:39:24.279Z,77.42
2022-11-23T16:41:57.382Z,77.68
2022-11-23T16:44:36.297Z,77.59
2022-11-23T16:47:25.787Z,77.59
2022-11-23T16:50:00.135Z,77.55
2022-11-23T16:52:32.786Z,77.40
2022-11-23T16:55:08.581Z,77.32
2022-11-23T16:57:44.634Z,77.37
2022-11-23T17:00:18.088Z,77.59
2022-11-23T17:02:53.066Z,77.77
2022-11-23T17:05:26.112Z,77.74
2022-11-23T17:07:59.234Z,77.66
2022-11-23T17:10:31.844Z,77.55
2022-11-23T17:13:04.330Z,77.57
2022-11-23T17:15:37.875Z,77.56
2022-11-23T17:18:15.779Z,77.57
2022-11-23T17:20:49.955Z,77.55
2022-11-23T17:23:22.450Z,77.60
2022-11-23T17:25:55.035Z,77.77
2022-11-23T17:28:28.971Z,77.77
2022-11-23T17:31:01.988Z,77.53
2022-11-23T17:33:35.244Z,77.61
2022-11-23T17:36:10.520Z,77.54
2022-11-23T17:38:47.296Z,77.54
2022-11-23T17:41:19.811Z,77.59
2022-11-23T17:43:52.571Z,77.67
2022-11-23T17:46:25.616Z,77.71
2022-11-23T17:49:02.534Z,77.75
2022-11-23T17:51:35.171Z,77.68
2022-11-23T17:54:08.220Z,77.87
2022-11-23T17:56:40.978Z,78.01
2022-11-23T17:59:13.478Z,77.91
2022-11-23T18:01:48.206Z,77.76
2022-11-23T18:04:20.668Z,77.81
2022-11-23T18:06:53.532Z,77.93
2022-11-23T18:09:27.232Z,77.99
2022-11-23T18:12:00.524Z,77.81
2022-11-23T18:14:32.966Z,77.79
2022-11-23T18:17:05.570Z,77.99
2022-11-23T18:19:38.045Z,77.82
2022-11-23T18:22:10.489Z,77.99
2022-11-23T18:24:43.254Z,77.97
2022-11-23T18:27:15.631Z,77.97
2022-11-23T18:29:48.866Z,77.78
2022-11-23T18:32:21.219Z,77.79
2022-11-23T18:34:53.566Z,77.92
2022-11-23T18:37:25.815Z,77.88
2022-11-23T18:39:58.235Z,78.08
2022-11-23T18:42:30.695Z,77.95
2022-11-23T18:45:03.527Z,78.08
2022-11-23T18:47:36.626Z,78.09
2022-11-23T18:50:10.820Z,78.08
2022-11-23T18:52:43.150Z,78.12
2022-11-23T18:55:15.597Z,78.06
2022-11-23T18:57:48.616Z,78.11
2022-11-23T19:00:22.618Z,77.99
2022-11-23T19:02:56.878Z,77.96
2022-11-23T19:05:34.307Z,77.83
2022-11-23T19:08:10.239Z,77.93
2022-11-23T19:10:43.545Z,77.92
2022-11-23T19:13:16.162Z,77.98
2022-11-23T19:15:48.971Z,78.08
2022-11-23T19:18:21.281Z,78.00
2022-11-23T19:20:53.876Z,78.07
2022-11-23T19:23:29.785Z,78.03
2022-11-23T19:26:05.502Z,78.04
2022-11-23T19:28:40.157Z,78.03
2022-11-23T19:31:18.500Z,78.00
2022-11-23T19:33:54.257Z,77.92
2022-11-23T19:36:28.595Z,77.79
2022-11-23T19:39:01.695Z,78.05
2022-11-23T19:41:34.170Z,78.10
2022-11-23T19:44:07.321Z,77.95
2022-11-23T19:46:40.270Z,78.03
2022-11-23T19:49:12.703Z,78.02
2022-11-23T19:51:45.368Z,78.08
2022-11-23T19:54:18.168Z,77.98
2022-11-23T19:56:53.796Z,78.03
2022-11-23T19:59:27.547Z,78.02
2022-11-23T20:02:00.316Z,78.06
2022-11-23T20:04:33.455Z,78.02
2022-11-23T20:07:06.380Z,77.93
2022-11-23T20:09:39.656Z,78.01
2022-11-23T20:12:13.490Z,78.07
2022-11-23T20:14:47.582Z,77.84
2022-11-23T20:17:20.054Z,77.71
2022-11-23T20:19:53.387Z,77.87
2022-11-23T20:22:25.811Z,77.77
2022-11-23T20:25:00.159Z,78.02
2022-11-23T20:27:33.141Z,77.86
2022-11-23T20:30:10.439Z,77.83
2022-11-23T20:32:43.917Z,77.86
2022-11-23T20:35:16.510Z,77.74
2022-11-23T20:37:49.248Z,77.91
2022-11-23T20:40:22.154Z,77.75
2022-11-23T20:42:56.311Z,77.82
2022-11-23T20:45:29.331Z,78.03
2022-11-23T20:48:01.997Z,77.91
2022-11-23T20:50:35.247Z,77.96
2022-11-23T20:53:09.403Z,77.90
2022-11-23T20:55:42.263Z,77.91
2022-11-23T20:58:18.002Z,77.73
2022-11-23T21:00:51.560Z,77.80
2022-11-23T21:03:24.564Z,77.73
2022-11-23T21:05:58.099Z,77.92
2022-11-23T21:08:34.663Z,77.84
2022-11-23T21:11:30.117Z,77.84
2022-11-23T21:14:16.990Z,77.71
2022-11-23T21:16:53.637Z,77.76
2022-11-23T21:19:29.096Z,77.82
2022-11-23T21:22:03.949Z,77.88
2022-11-23T21:24:37.020Z,77.85
2022-11-23T21:27:13.783Z,77.83
2022-11-23T21:29:46.678Z,77.72
2022-11-23T21:32:20.368Z,77.75
2022-11-23T21:34:54.598Z,77.72
2022-11-23T21:37:27.735Z,77.79
2022-11-23T21:40:00.143Z,77.89
2022-11-23T21:42:32.582Z,77.90
2022-11-23T21:45:05.290Z,77.79
2022-11-23T21:47:37.896Z,77.84
2022-11-23T21:50:11.999Z,77.62
2022-11-23T21:52:44.332Z,77.76
2022-11-23T21:55:17.245Z,77.82
2022-11-23T21:57:49.768Z,77.67
2022-11-23T22:00:28.430Z,77.47
2022-11-23T22:03:03.856Z,77.38
2022-11-23T22:05:36.226Z,77.52
2022-11-23T22:11:02.925Z,77.35
2022-11-23T22:13:37.095Z,77.56
2022-11-23T22:16:17.990Z,77.61
2022-11-23T22:18:55.581Z,77.37
2022-11-23T22:21:33.241Z,77.50
2022-11-23T22:24:07.101Z,77.48
2022-11-23T22:26:41.440Z,77.39
2022-11-23T22:29:14.506Z,77.44
2022-11-23T22:31:46.909Z,77.33
2022-11-23T22:34:19.519Z,77.42
2022-11-23T22:36:54.059Z,77.30
2022-11-23T22:39:26.897Z,77.41
2022-11-23T22:42:00.743Z,77.45
2022-11-23T22:44:33.417Z,77.42
2022-11-23T22:47:06.335Z,77.33
2022-11-23T22:49:39.595Z,77.34
2022-11-23T22:52:12.338Z,77.21
2022-11-23T22:54:44.901Z,77.39
2022-11-23T22:57:17.320Z,77.33
2022-11-23T22:59:50.203Z,77.42
2022-11-23T23:02:23.613Z,77.34
2022-11-23T23:04:56.088Z,77.50
2022-11-23T23:07:31.466Z,77.33
2022-11-23T23:10:04.014Z,77.42
2022-11-23T23:12:36.437Z,77.30
2022-11-23T23:15:10.704Z,77.25
2022-11-23T23:17:43.097Z,77.43
2022-11-23T23:20:15.901Z,77.33
2022-11-23T23:22:48.580Z,77.28
2022-11-23T23:25:21.265Z,77.26
2022-11-23T23:27:53.711Z,77.27
2022-11-23T23:30:26.311Z,77.14
2022-11-23T23:33:00.194Z,77.08
2022-11-23T23:35:35.249Z,77.20
2022-11-23T23:38:09.052Z,77.14
2022-11-23T23:40:41.650Z,77.19
2022-11-23T23:43:15.152Z,77.09
2022-11-23T23:45:48.213Z,77.10
2022-11-23T23:48:20.748Z,77.13
2022-11-23T23:50:53.658Z,77.05
2022-11-23T23:53:26.275Z,77.05
2022-11-23T23:56:03.670Z,77.04
2022-11-23T23:58:37.467Z,76.91
